createdAt,value
2022-11-11T00:00:04.579Z,102245.02
2022-11-11T00:03:11.732Z,102244.64
2022-11-11T00:06:09.692Z,102244.96
2022-11-11T00:08:56.908Z,102239.63
2022-11-11T00:11:44.022Z,102243.51
2022-11-11T00:14:31.247Z,102246.42
2022-11-11T00:17:37.054Z,102248.95
2022-11-11T00:20:44.750Z,102248.89
2022-11-11T00:23:50.265Z,102249.24
2022-11-11T00:26:40.356Z,102248.36
2022-11-11T00:29:28.030Z,102244.90
2022-11-11T00:32:25.004Z,102246.36
2022-11-11T00:35:30.934Z,102247.98
2022-11-11T00:38:36.355Z,102248.41
2022-11-11T00:41:27.366Z,102249.98
2022-11-11T00:44:14.227Z,102257.40
2022-11-11T00:47:19.694Z,102259.44
2022-11-11T00:50:31.218Z,102259.02
2022-11-11T00:53:27.665Z,102259.13
2022-11-11T00:56:14.831Z,102259.55
2022-11-11T00:59:05.445Z,102266.39
2022-11-11T01:01:52.476Z,102267.57
2022-11-11T01:04:39.952Z,102263.79
2022-11-11T01:07:27.140Z,102265.38
2022-11-11T01:10:14.366Z,102265.23
2022-11-11T01:13:12.816Z,102263.83
2022-11-11T01:16:04.534Z,102265.84
2022-11-11T01:18:53.310Z,102265.17
2022-11-11T01:21:40.173Z,102267.83
2022-11-11T01:24:27.613Z,102265.17
2022-11-11T01:27:14.526Z,102271.57
2022-11-11T01:30:01.513Z,102275.15
2022-11-11T01:32:48.957Z,102275.63
2022-11-11T01:35:40.281Z,102276.09
2022-11-11T01:38:27.892Z,102279.84
2022-11-11T01:41:33.639Z,102281.98
2022-11-11T01:44:47.354Z,102284.48
2022-11-11T01:48:22.201Z,102287.64
2022-11-11T01:51:11.037Z,102286.02
2022-11-11T01:54:03.100Z,102290.08
2022-11-11T01:56:55.871Z,102290.55
2022-11-11T01:59:46.454Z,102289.35
2022-11-11T02:02:44.849Z,102285.23
2022-11-11T02:05:48.240Z,102288.16
2022-11-11T02:08:37.757Z,102284.27
2022-11-11T02:11:46.618Z,102281.80
2022-11-11T02:14:40.652Z,102283.98
2022-11-11T02:17:31.480Z,102288.59
2022-11-11T02:20:24.067Z,102289.45
2022-11-11T02:23:19.366Z,102290.36
2022-11-11T02:26:09.208Z,102297.52
2022-11-11T02:28:57.357Z,102300.09
2022-11-11T02:31:44.761Z,102308.54
2022-11-11T02:34:33.756Z,102311.61
2022-11-11T02:37:27.410Z,102310.67
2022-11-11T02:40:59.646Z,102313.95
2022-11-11T02:43:46.619Z,102312.29
2022-11-11T02:46:33.533Z,102303.55
2022-11-11T02:49:20.728Z,102311.13
2022-11-11T02:52:08.210Z,102313.00
2022-11-11T02:54:55.432Z,102313.82
2022-11-11T02:57:42.692Z,102318.41
2022-11-11T03:00:29.832Z,102319.81
2022-11-11T03:03:17.106Z,102319.30
2022-11-11T03:06:04.449Z,102320.08
2022-11-11T03:08:51.615Z,102321.02
2022-11-11T03:11:39.482Z,102322.61
2022-11-11T03:14:26.945Z,102316.36
2022-11-11T03:17:32.979Z,102317.84
2022-11-11T03:20:38.934Z,102317.61
2022-11-11T03:23:25.966Z,102317.52
2022-11-11T03:26:13.018Z,102318.68
2022-11-11T03:28:59.778Z,102322.54
2022-11-11T03:31:46.594Z,102320.27
2022-11-11T03:34:33.423Z,102317.55
2022-11-11T03:37:38.463Z,102322.59
2022-11-11T03:40:25.777Z,102321.08
2022-11-11T03:43:15.765Z,102325.89
2022-11-11T03:46:05.551Z,102324.67
2022-11-11T03:48:52.474Z,102326.44
2022-11-11T03:51:39.386Z,102328.91
2022-11-11T03:54:26.365Z,102329.87
2022-11-11T03:57:31.366Z,102333.02
2022-11-11T04:00:23.047Z,102338.92
2022-11-11T04:03:35.591Z,102342.58
2022-11-11T04:06:41.194Z,102345.29
2022-11-11T04:09:46.542Z,102347.36
2022-11-11T04:12:56.354Z,102348.59
2022-11-11T04:16:01.260Z,102347.23
2022-11-11T04:19:06.539Z,102354.55
2022-11-11T04:21:53.835Z,102349.42
2022-11-11T04:24:59.313Z,102347.41
2022-11-11T04:28:06.450Z,102348.09
2022-11-11T04:30:53.494Z,102347.00
2022-11-11T04:33:40.795Z,102352.10
2022-11-11T04:36:27.994Z,102352.88
2022-11-11T04:39:32.880Z,102359.44
2022-11-11T04:42:19.708Z,102363.61
2022-11-11T04:45:28.343Z,102368.39
2022-11-11T04:48:18.338Z,102369.52
2022-11-11T04:51:05.767Z,102374.54
2022-11-11T04:53:52.715Z,102374.70
2022-11-11T04:56:50.221Z,102373.98
2022-11-11T04:59:37.516Z,102377.23
2022-11-11T05:02:42.917Z,102379.15
2022-11-11T05:05:50.917Z,102383.17
2022-11-11T05:08:57.392Z,102385.02
2022-11-11T05:11:44.562Z,102392.56
2022-11-11T05:14:57.507Z,102393.91
2022-11-11T05:18:16.665Z,102394.19
2022-11-11T05:21:22.450Z,102400.61
2022-11-11T05:24:27.659Z,102411.20
2022-11-11T05:27:16.249Z,102413.70
2022-11-11T05:30:08.255Z,102416.27
2022-11-11T05:32:56.307Z,102418.37
2022-11-11T05:35:45.796Z,102422.48
2022-11-11T05:38:33.014Z,102421.14
2022-11-11T05:41:22.916Z,102427.34
2022-11-11T05:44:10.789Z,102429.18
2022-11-11T05:46:58.688Z,102430.98
2022-11-11T05:49:45.539Z,102431.59
2022-11-11T05:52:32.792Z,102432.77
2022-11-11T05:55:20.664Z,102434.80
2022-11-11T05:58:08.376Z,102437.48
2022-11-11T06:00:55.568Z,102442.35
2022-11-11T06:03:44.093Z,102445.07
2022-11-11T06:06:36.956Z,102445.70
2022-11-11T06:09:24.901Z,102449.99
2022-11-11T06:12:12.765Z,102458.05
2022-11-11T06:15:00.125Z,102464.03
2022-11-11T06:17:47.636Z,102469.94
2022-11-11T06:20:37.806Z,102478.55
2022-11-11T06:23:26.709Z,102477.67
2022-11-11T06:26:15.290Z,102482.73
2022-11-11T06:29:04.367Z,102486.45
2022-11-11T06:31:51.829Z,102487.60
2022-11-11T06:34:38.677Z,102488.59
2022-11-11T06:37:26.730Z,102491.13
2022-11-11T06:40:17.489Z,102489.20
2022-11-11T06:43:07.384Z,102489.50
2022-11-11T06:45:55.677Z,102492.14
2022-11-11T06:48:43.756Z,102490.38
2022-11-11T06:51:30.759Z,102495.41
2022-11-11T06:54:17.676Z,102500.02
2022-11-11T06:57:08.561Z,102505.20
2022-11-11T06:59:55.722Z,102503.84
2022-11-11T07:02:43.871Z,102505.46
2022-11-11T07:05:32.467Z,102513.38
2022-11-11T07:08:20.499Z,102516.62
2022-11-11T07:11:13.992Z,102518.13
2022-11-11T07:14:06.639Z,102518.61
2022-11-11T07:16:53.950Z,102515.97
2022-11-11T07:19:42.893Z,102516.96
2022-11-11T07:22:35.492Z,102518.73
2022-11-11T07:25:27.179Z,102519.68
2022-11-11T07:28:14.841Z,102528.35
2022-11-11T07:31:02.572Z,102534.91
2022-11-11T07:33:51.063Z,102532.11
2022-11-11T07:36:39.259Z,102534.35
2022-11-11T07:39:28.630Z,102536.02
2022-11-11T07:42:31.027Z,102534.09
2022-11-11T07:45:19.456Z,102531.27
2022-11-11T07:48:07.133Z,102526.73
2022-11-11T07:50:57.238Z,102529.07
2022-11-11T07:53:46.375Z,102526.74
2022-11-11T07:56:33.678Z,102524.23
2022-11-11T07:59:20.863Z,102529.58
2022-11-11T08:02:13.102Z,102535.01
2022-11-11T08:05:00.245Z,102535.01
2022-11-11T08:07:48.774Z,102536.55
2022-11-11T08:10:38.431Z,102536.31
2022-11-11T08:13:44.445Z,102539.92
2022-11-11T08:16:31.636Z,102546.38
2022-11-11T08:19:18.624Z,102550.11
2022-11-11T08:22:06.398Z,102547.98
2022-11-11T08:25:09.527Z,102552.56
2022-11-11T08:28:05.369Z,102559.00
2022-11-11T08:30:52.704Z,102562.18
2022-11-11T08:33:39.531Z,102564.68
2022-11-11T08:36:27.036Z,102567.36
2022-11-11T08:39:15.445Z,102571.37
2022-11-11T08:42:02.712Z,102577.65
2022-11-11T08:44:51.934Z,102580.38
2022-11-11T08:47:40.569Z,102579.44
2022-11-11T08:50:27.945Z,102578.20
2022-11-11T08:53:15.506Z,102581.33
2022-11-11T08:56:04.512Z,102577.20
2022-11-11T08:58:53.737Z,102576.82
2022-11-11T09:01:42.395Z,102567.95
2022-11-11T09:04:44.138Z,102568.35
2022-11-11T09:07:32.464Z,102562.25
2022-11-11T09:10:19.511Z,102564.79
2022-11-11T09:13:06.999Z,102561.54
2022-11-11T09:15:55.696Z,102565.67
2022-11-11T09:18:43.141Z,102565.98
2022-11-11T09:21:30.430Z,102564.52
2022-11-11T09:24:17.190Z,102565.55
2022-11-11T09:27:04.269Z,102560.67
2022-11-11T09:29:51.477Z,102554.02
2022-11-11T09:32:38.438Z,102555.73
2022-11-11T09:35:25.552Z,102555.98
2022-11-11T09:38:13.476Z,102547.52
2022-11-11T09:41:25.800Z,102543.91
2022-11-11T09:44:57.387Z,102540.05
2022-11-11T09:47:51.032Z,102539.84
2022-11-11T09:50:40.476Z,102537.13
2022-11-11T09:53:39.064Z,102543.20
2022-11-11T09:56:31.528Z,102540.69
2022-11-11T09:59:33.050Z,102541.27
2022-11-11T10:02:45.601Z,102536.48
2022-11-11T10:05:40.628Z,102541.36
2022-11-11T10:08:45.247Z,102539.48
2022-11-11T10:11:40.835Z,102539.11
2022-11-11T10:14:49.561Z,102533.89
2022-11-11T10:18:01.713Z,102535.15
2022-11-11T10:20:55.621Z,102530.16
2022-11-11T10:23:48.903Z,102530.86
2022-11-11T10:26:41.261Z,102526.89
2022-11-11T10:29:51.149Z,102522.33
2022-11-11T10:32:38.415Z,102520.98
2022-11-11T10:35:32.316Z,102521.06
2022-11-11T10:38:51.251Z,102512.83
2022-11-11T10:41:49.368Z,102515.90
2022-11-11T10:44:37.555Z,102506.94
2022-11-11T10:47:44.472Z,102507.73
2022-11-11T10:50:39.265Z,102507.95
2022-11-11T10:53:32.822Z,102508.58
2022-11-11T10:56:58.514Z,102514.96
2022-11-11T10:59:56.331Z,102510.81
2022-11-11T11:03:05.104Z,102509.66
2022-11-11T11:05:57.537Z,102503.86
2022-11-11T11:08:53.134Z,102502.80
2022-11-11T11:12:00.185Z,102506.17
2022-11-11T11:14:54.647Z,102496.00
2022-11-11T11:18:12.941Z,102491.69
2022-11-11T11:21:04.193Z,102490.75
2022-11-11T11:23:51.245Z,102486.64
2022-11-11T11:26:51.992Z,102487.92
2022-11-11T11:29:44.876Z,102487.09
2022-11-11T11:32:32.911Z,102486.37
2022-11-11T11:35:54.219Z,102492.33
2022-11-11T11:38:47.623Z,102491.77
2022-11-11T11:41:50.465Z,102490.35
2022-11-11T11:44:39.894Z,102493.33
2022-11-11T11:48:03.293Z,102489.30
2022-11-11T11:51:10.178Z,102491.55
2022-11-11T11:55:01.807Z,102496.13
2022-11-11T11:57:57.612Z,102499.54
2022-11-11T12:01:16.910Z,102496.23
2022-11-11T12:04:19.596Z,102497.83
2022-11-11T12:07:27.230Z,102496.95
2022-11-11T12:10:43.316Z,102492.52
2022-11-11T12:14:03.081Z,102490.31
2022-11-11T12:17:42.482Z,102486.13
2022-11-11T12:20:40.950Z,102486.65
2022-11-11T12:24:10.226Z,102486.62
2022-11-11T12:27:59.329Z,102485.16
2022-11-11T12:30:56.912Z,102482.91
2022-11-11T12:34:05.465Z,102484.22
2022-11-11T12:37:22.935Z,102484.48
2022-11-11T12:40:39.901Z,102487.34
2022-11-11T12:43:56.162Z,102493.85
2022-11-11T12:46:55.709Z,102486.90
2022-11-11T12:49:55.281Z,102486.28
2022-11-11T12:53:11.209Z,102489.66
2022-11-11T12:56:38.461Z,102490.59
2022-11-11T13:00:11.097Z,102486.98
2022-11-11T13:03:26.233Z,102499.97
2022-11-11T13:06:33.563Z,102502.15
2022-11-11T13:09:53.420Z,102494.23
2022-11-11T13:13:03.516Z,102500.96
2022-11-11T13:15:50.895Z,102499.91
2022-11-11T13:19:23.538Z,102496.13
2022-11-11T13:25:23.513Z,102498.91
2022-11-11T13:28:24.183Z,102503.06
2022-11-11T13:31:39.347Z,102502.72
2022-11-11T13:34:37.521Z,102506.88
2022-11-11T13:37:30.387Z,102504.10
2022-11-11T13:40:40.643Z,102505.82
2022-11-11T13:43:52.801Z,102507.13
2022-11-11T13:46:50.297Z,102505.54
2022-11-11T13:50:02.412Z,102507.54
2022-11-11T13:53:07.307Z,102511.44
2022-11-11T13:56:03.373Z,102505.57
2022-11-11T13:58:58.513Z,102507.69
2022-11-11T14:01:46.971Z,102508.67
2022-11-11T14:05:09.239Z,102510.71
2022-11-11T14:07:58.313Z,102516.38
2022-11-11T14:11:12.074Z,102514.59
2022-11-11T14:14:50.548Z,102514.63
2022-11-11T14:17:45.880Z,102516.64
2022-11-11T14:20:33.173Z,102519.66
2022-11-11T14:23:30.960Z,102522.71
2022-11-11T14:26:28.341Z,102521.53
2022-11-11T14:29:21.563Z,102523.30
2022-11-11T14:32:14.371Z,102521.71
2022-11-11T14:36:05.823Z,102525.39
2022-11-11T14:39:10.897Z,102524.26
2022-11-11T14:41:58.285Z,102528.77
2022-11-11T14:44:45.893Z,102533.36
2022-11-11T14:47:40.867Z,102541.79
2022-11-11T14:50:31.311Z,102550.46
2022-11-11T14:53:35.146Z,102555.48
2022-11-11T14:56:24.685Z,102557.75
2022-11-11T14:59:14.580Z,102549.15
2022-11-11T15:02:04.263Z,102546.18
2022-11-11T15:04:51.084Z,102555.65
2022-11-11T15:07:53.584Z,102552.09
2022-11-11T15:10:59.500Z,102559.73
2022-11-11T15:14:21.490Z,102565.77
2022-11-11T15:17:34.869Z,102565.73
2022-11-11T15:20:50.789Z,102563.48
2022-11-11T15:23:56.430Z,102568.83
2022-11-11T15:27:07.639Z,102578.66
2022-11-11T15:30:53.194Z,102575.73
2022-11-11T15:37:07.193Z,102578.88
2022-11-11T15:39:57.884Z,102579.93
2022-11-11T15:42:48.245Z,102576.61
2022-11-11T15:45:36.821Z,102577.66
2022-11-11T15:48:29.795Z,102584.48
2022-11-11T15:51:31.672Z,102586.21
2022-11-11T15:54:23.345Z,102586.65
2022-11-11T15:57:35.534Z,102587.89
2022-11-11T16:00:24.084Z,102588.32
2022-11-11T16:03:28.662Z,102592.23
2022-11-11T16:06:17.255Z,102598.50
2022-11-11T16:09:05.036Z,102600.02
2022-11-11T16:11:57.617Z,102598.94
2022-11-11T16:14:48.015Z,102605.40
2022-11-11T16:17:43.508Z,102609.94
2022-11-11T16:20:47.150Z,102607.67
2022-11-11T16:23:35.515Z,102607.51
2022-11-11T16:26:23.317Z,102606.30
2022-11-11T16:29:16.567Z,102604.04
2022-11-11T16:32:24.241Z,102599.53
2022-11-11T16:35:39.113Z,102602.58
2022-11-11T16:38:36.079Z,102602.16
2022-11-11T16:41:34.301Z,102607.33
2022-11-11T16:44:51.740Z,102609.87
2022-11-11T16:47:46.194Z,102611.67
2022-11-11T16:50:34.123Z,102612.02
2022-11-11T16:53:35.261Z,102614.36
2022-11-11T16:56:32.602Z,102621.46
2022-11-11T16:59:49.892Z,102628.05
2022-11-11T17:02:37.220Z,102624.90
2022-11-11T17:05:55.539Z,102619.88
2022-11-11T17:08:45.722Z,102614.80
2022-11-11T17:11:45.904Z,102621.59
2022-11-11T17:14:39.209Z,102620.65
2022-11-11T17:17:26.840Z,102628.91
2022-11-11T17:20:22.444Z,102621.77
2022-11-11T17:23:14.594Z,102610.98
2022-11-11T17:26:06.030Z,102609.23
2022-11-11T17:28:58.665Z,102615.70
2022-11-11T17:31:52.063Z,102617.33
2022-11-11T17:34:50.272Z,102610.86
2022-11-11T17:37:43.260Z,102611.20
2022-11-11T17:40:35.350Z,102610.34
2022-11-11T17:43:23.765Z,102609.40
2022-11-11T17:46:11.448Z,102601.70
2022-11-11T17:48:59.054Z,102604.27
2022-11-11T17:51:47.446Z,102611.95
2022-11-11T17:54:35.505Z,102612.41
2022-11-11T17:57:23.636Z,102611.12
2022-11-11T18:00:13.710Z,102612.09
2022-11-11T18:03:02.396Z,102610.25
2022-11-11T18:05:55.171Z,102605.46
2022-11-11T18:08:43.410Z,102606.24
2022-11-11T18:11:31.658Z,102605.02
2022-11-11T18:14:20.119Z,102605.20
2022-11-11T18:17:09.141Z,102609.45
2022-11-11T18:19:58.710Z,102610.66
2022-11-11T18:22:46.828Z,102612.10
2022-11-11T18:25:34.187Z,102615.18
2022-11-11T18:28:22.278Z,102615.30
2022-11-11T18:31:14.280Z,102615.33
2022-11-11T18:34:02.252Z,102617.34
2022-11-11T18:36:55.271Z,102613.79
2022-11-11T18:39:43.511Z,102604.03
2022-11-11T18:42:32.487Z,102608.53
2022-11-11T18:45:20.510Z,102621.79
2022-11-11T18:48:08.875Z,102622.96
2022-11-11T18:50:56.221Z,102617.27
2022-11-11T18:53:44.117Z,102609.07
2022-11-11T18:56:34.979Z,102602.33
2022-11-11T18:59:22.351Z,102603.16
2022-11-11T19:02:10.058Z,102598.48
2022-11-11T19:04:57.544Z,102602.05
2022-11-11T19:07:49.014Z,102602.42
2022-11-11T19:10:36.157Z,102600.35
2022-11-11T19:13:24.716Z,102599.64
2022-11-11T19:16:17.008Z,102603.67
2022-11-11T19:19:06.430Z,102608.23
2022-11-11T19:21:53.859Z,102607.00
2022-11-11T19:24:41.227Z,102612.66
2022-11-11T19:27:28.481Z,102613.85
2022-11-11T19:30:16.099Z,102611.73
2022-11-11T19:33:04.276Z,102614.02
2022-11-11T19:36:14.121Z,102619.60
2022-11-11T19:39:02.019Z,102618.27
2022-11-11T19:41:49.386Z,102616.36
2022-11-11T19:44:36.700Z,102619.85
2022-11-11T19:47:23.975Z,102628.52
2022-11-11T19:50:11.311Z,102630.98
2022-11-11T19:53:04.091Z,102633.09
2022-11-11T19:56:02.803Z,102625.33
2022-11-11T19:58:50.317Z,102629.77
2022-11-11T20:01:37.486Z,102628.88
2022-11-11T20:04:25.270Z,102635.21
2022-11-11T20:07:12.803Z,102633.45
2022-11-11T20:10:00.133Z,102635.30
2022-11-11T20:12:47.371Z,102634.19
2022-11-11T20:15:35.918Z,102640.92
2022-11-11T20:18:23.354Z,102642.86
2022-11-11T20:21:12.096Z,102646.48
2022-11-11T20:23:59.553Z,102646.34
2022-11-11T20:26:51.911Z,102646.84
2022-11-11T20:29:40.080Z,102645.09
2022-11-11T20:32:28.442Z,102652.28
2022-11-11T20:35:17.048Z,102658.90
2022-11-11T20:38:04.240Z,102669.14
2022-11-11T20:41:08.872Z,102679.07
2022-11-11T20:43:55.927Z,102676.09
2022-11-11T20:46:43.167Z,102676.07
2022-11-11T20:49:30.319Z,102672.55
2022-11-11T20:52:17.320Z,102673.40
2022-11-11T20:55:05.480Z,102671.77
2022-11-11T20:57:52.752Z,102674.78
2022-11-11T21:00:39.779Z,102671.98
2022-11-11T21:03:27.124Z,102680.84
2022-11-11T21:06:17.939Z,102681.42
2022-11-11T21:09:10.638Z,102680.84
2022-11-11T21:11:57.952Z,102682.09
2022-11-11T21:14:47.558Z,102684.89
2022-11-11T21:17:35.019Z,102680.79
2022-11-11T21:20:22.371Z,102683.23
2022-11-11T21:23:09.767Z,102684.14
2022-11-11T21:26:06.578Z,102677.66
2022-11-11T21:28:54.713Z,102674.28
2022-11-11T21:31:43.910Z,102672.10
2022-11-11T21:34:30.689Z,102672.86
2022-11-11T21:37:18.134Z,102668.83
2022-11-11T21:40:07.077Z,102676.70
2022-11-11T21:42:58.103Z,102682.48
2022-11-11T21:45:45.850Z,102690.95
2022-11-11T21:48:34.149Z,102697.31
2022-11-11T21:51:26.254Z,102688.04
2022-11-11T21:54:14.385Z,102688.78
2022-11-11T21:57:02.330Z,102683.67
2022-11-11T21:59:50.562Z,102688.71
2022-11-11T22:02:38.007Z,102687.39
2022-11-11T22:05:25.143Z,102685.35
2022-11-11T22:09:29.456Z,102684.71
2022-11-11T22:16:55.096Z,102682.31
2022-11-11T22:23:58.950Z,102688.79
2022-11-11T22:26:46.086Z,102684.55
2022-11-11T22:29:33.425Z,102684.26
2022-11-11T22:32:23.155Z,102674.44
2022-11-11T22:35:10.540Z,102673.88
2022-11-11T22:37:57.923Z,102680.13
2022-11-11T22:40:45.402Z,102685.85
2022-11-11T22:43:58.581Z,102689.76
2022-11-11T22:46:47.388Z,102688.17
2022-11-11T22:49:34.317Z,102685.05
2022-11-11T22:52:21.498Z,102687.44
2022-11-11T22:55:08.473Z,102686.56
2022-11-11T22:57:56.002Z,102684.48
2022-11-11T23:00:42.911Z,102682.42
2022-11-11T23:03:35.835Z,102679.85
2022-11-11T23:06:27.355Z,102677.05
2022-11-11T23:09:14.903Z,102676.23
2022-11-11T23:12:02.001Z,102682.80
2022-11-11T23:14:49.288Z,102687.16
2022-11-11T23:17:37.042Z,102685.19
2022-11-11T23:20:24.219Z,102683.14
2022-11-11T23:23:11.437Z,102682.95
2022-11-11T23:26:06.329Z,102678.46
2022-11-11T23:28:53.819Z,102673.80
2022-11-11T23:31:41.100Z,102671.48
2022-11-11T23:34:28.422Z,102672.61
2022-11-11T23:37:15.529Z,102671.02
2022-11-11T23:40:03.160Z,102671.16
2022-11-11T23:42:50.383Z,102670.84
2022-11-11T23:45:40.288Z,102677.11
2022-11-11T23:48:28.792Z,102684.50
2022-11-11T23:51:18.190Z,102686.71
2022-11-11T23:54:05.519Z,102689.94
2022-11-11T23:56:52.842Z,102691.14
2022-11-11T23:59:40.405Z,102688.36
